createdAt,value
2023-04-01T00:02:02.928Z,99925.22
2023-04-01T00:04:32.145Z,99924.56
2023-04-01T00:07:04.154Z,99934.41
2023-04-01T00:09:32.668Z,99923.84
2023-04-01T00:12:02.612Z,99921.75
2023-04-01T00:14:32.029Z,99931.53
2023-04-01T00:17:02.893Z,99916.28
2023-04-01T00:19:32.198Z,99914.88
2023-04-01T00:22:03.189Z,99923.19
2023-04-01T00:24:32.351Z,99926.56
2023-04-01T00:27:02.637Z,99933.38
2023-04-01T00:29:32.588Z,99933.50
2023-04-01T00:32:03.505Z,99937.97
2023-04-01T00:34:32.694Z,99937.13
2023-04-01T00:37:02.880Z,99943.03
2023-04-01T00:39:33.100Z,99935.88
2023-04-01T00:42:04.480Z,99926.63
2023-04-01T00:44:36.394Z,99917.53
2023-04-01T00:47:04.746Z,99917.75
2023-04-01T00:49:41.704Z,99922.34
2023-04-01T00:52:15.137Z,99930.88
2023-04-01T00:54:48.378Z,99918.00
2023-04-01T00:57:36.442Z,99911.94
2023-04-01T01:00:11.758Z,99907.56
2023-04-01T01:02:52.523Z,99900.09
2023-04-01T01:05:34.660Z,99902.94
2023-04-01T01:08:32.031Z,99898.13
2023-04-01T01:11:04.525Z,99908.88
2023-04-01T01:13:53.623Z,99916.69
2023-04-01T01:16:36.753Z,99924.75
2023-04-01T01:19:23.760Z,99931.53
2023-04-01T01:22:21.936Z,99917.06
2023-04-01T01:25:24.624Z,99922.25
2023-04-01T01:28:34.859Z,99917.53
2023-04-01T01:31:12.852Z,99907.84
2023-04-01T01:34:03.869Z,99912.47
2023-04-01T01:36:38.860Z,99896.03
2023-04-01T01:39:12.756Z,99902.25
2023-04-01T01:41:44.727Z,99891.00
2023-04-01T01:44:16.060Z,99884.84
2023-04-01T01:46:47.652Z,99862.31
2023-04-01T01:49:20.190Z,99854.56
2023-04-01T01:51:49.814Z,99852.69
2023-04-01T01:54:20.810Z,99862.63
2023-04-01T01:56:53.384Z,99855.72
2023-04-01T01:59:26.880Z,99843.63
2023-04-01T02:02:02.876Z,99846.06
2023-04-01T02:04:32.078Z,99848.41
2023-04-01T02:07:07.270Z,99836.63
2023-04-01T02:09:37.165Z,99829.84
2023-04-01T02:12:10.847Z,99834.09
2023-04-01T02:14:54.465Z,99823.78
2023-04-01T02:17:30.384Z,99796.28
2023-04-01T02:20:08.015Z,99807.47
2023-04-01T02:22:46.522Z,99792.28
2023-04-01T02:25:20.661Z,99793.34
2023-04-01T02:27:49.538Z,99793.38
2023-04-01T02:30:20.435Z,99794.69
2023-04-01T02:32:52.005Z,99803.44
2023-04-01T02:35:21.155Z,99790.56
2023-04-01T02:37:52.356Z,99774.81
2023-04-01T02:40:21.581Z,99789.59
2023-04-01T02:42:52.200Z,99785.78
2023-04-01T02:45:24.902Z,99784.25
2023-04-01T02:47:53.472Z,99795.34
2023-04-01T02:50:23.282Z,99788.78
2023-04-01T02:52:52.315Z,99801.91
2023-04-01T02:55:21.455Z,99808.41
2023-04-01T02:57:51.154Z,99804.06
2023-04-01T03:00:20.573Z,99788.81
2023-04-01T03:02:49.268Z,99778.41
2023-04-01T03:05:18.668Z,99769.81
2023-04-01T03:07:47.458Z,99760.78
2023-04-01T03:10:16.669Z,99752.31
2023-04-01T03:12:45.398Z,99754.94
2023-04-01T03:15:16.337Z,99734.69
2023-04-01T03:17:48.205Z,99739.03
2023-04-01T03:20:17.252Z,99741.56
2023-04-01T03:22:48.108Z,99748.06
2023-04-01T03:25:17.040Z,99753.00
2023-04-01T03:27:46.690Z,99754.91
2023-04-01T03:30:15.802Z,99744.06
2023-04-01T03:32:52.359Z,99736.19
2023-04-01T03:35:22.149Z,99738.38
2023-04-01T03:37:55.299Z,99725.13
2023-04-01T03:40:24.887Z,99726.75
2023-04-01T03:42:55.481Z,99727.75
2023-04-01T03:45:24.548Z,99728.09
2023-04-01T03:47:53.030Z,99730.47
2023-04-01T03:50:23.257Z,99728.38
2023-04-01T03:52:52.422Z,99717.66
2023-04-01T03:55:21.795Z,99705.00
2023-04-01T03:57:51.649Z,99693.81
2023-04-01T04:00:21.596Z,99696.53
2023-04-01T04:02:55.442Z,99690.56
2023-04-01T04:05:31.023Z,99697.94
2023-04-01T04:08:02.756Z,99675.59
2023-04-01T04:10:32.283Z,99654.41
2023-04-01T04:13:02.857Z,99649.47
2023-04-01T04:15:35.016Z,99624.78
2023-04-01T04:18:03.972Z,99595.47
2023-04-01T04:20:32.945Z,99572.50
2023-04-01T04:23:02.690Z,99565.75
2023-04-01T04:25:31.677Z,99563.59
2023-04-01T04:28:02.521Z,99563.03
2023-04-01T04:30:32.195Z,99547.84
2023-04-01T04:33:02.666Z,99553.81
2023-04-01T04:35:32.268Z,99530.66
2023-04-01T04:38:02.380Z,99550.16
2023-04-01T04:40:32.194Z,99557.19
2023-04-01T04:43:02.553Z,99564.88
2023-04-01T04:45:33.517Z,99571.44
2023-04-01T04:48:02.859Z,99579.09
2023-04-01T04:50:32.159Z,99554.00
2023-04-01T04:53:02.781Z,99536.06
2023-04-01T04:55:32.940Z,99522.53
2023-04-01T04:58:22.061Z,99505.63
2023-04-01T05:00:52.510Z,99500.53
2023-04-01T05:03:27.815Z,99518.19
2023-04-01T05:06:00.073Z,99510.59
2023-04-01T05:08:29.291Z,99501.91
2023-04-01T05:11:00.468Z,99503.78
2023-04-01T05:13:32.471Z,99498.66
2023-04-01T05:16:02.842Z,99485.84
2023-04-01T05:18:32.068Z,99481.22
2023-04-01T05:21:01.930Z,99475.00
2023-04-01T05:23:33.972Z,99459.84
2023-04-01T05:26:12.310Z,99440.78
2023-04-01T05:28:41.439Z,99433.91
2023-04-01T05:31:11.721Z,99424.47
2023-04-01T05:33:42.709Z,99439.63
2023-04-01T05:36:15.892Z,99414.13
2023-04-01T05:38:47.640Z,99398.66
2023-04-01T05:41:19.005Z,99392.34
2023-04-01T05:43:48.377Z,99409.66
2023-04-01T05:46:36.990Z,99413.31
2023-04-01T05:49:23.240Z,99414.88
2023-04-01T05:51:53.002Z,99393.41
2023-04-01T05:54:22.878Z,99388.69
2023-04-01T05:56:52.408Z,99400.91
2023-04-01T05:59:22.841Z,99383.59
2023-04-01T06:01:53.356Z,99376.06
2023-04-01T06:04:23.337Z,99387.72
2023-04-01T06:06:53.610Z,99376.31
2023-04-01T06:09:32.707Z,99359.59
2023-04-01T06:12:29.209Z,99355.94
2023-04-01T06:15:31.238Z,99359.38
2023-04-01T06:18:33.978Z,99348.88
2023-04-01T06:21:06.745Z,99354.03
2023-04-01T06:24:00.878Z,99349.47
2023-04-01T06:26:50.793Z,99350.34
2023-04-01T06:29:37.091Z,99353.63
2023-04-01T06:32:32.416Z,99344.53
2023-04-01T06:35:24.831Z,99348.69
2023-04-01T06:38:17.417Z,99343.31
2023-04-01T06:41:01.049Z,99326.97
2023-04-01T06:44:09.949Z,99315.22
2023-04-01T06:47:01.803Z,99325.56
2023-04-01T06:50:19.703Z,99314.94
2023-04-01T06:53:23.231Z,99304.44
2023-04-01T06:56:17.081Z,99315.91
2023-04-01T06:59:15.028Z,99307.94
2023-04-01T07:01:49.086Z,99290.78
2023-04-01T07:04:27.032Z,99274.91
2023-04-01T07:07:18.085Z,99261.75
2023-04-01T07:10:03.167Z,99245.22
2023-04-01T07:12:44.673Z,99228.00
2023-04-01T07:15:20.701Z,99214.84
2023-04-01T07:17:55.775Z,99195.63
2023-04-01T07:20:29.241Z,99195.47
2023-04-01T07:23:07.148Z,99189.22
2023-04-01T07:25:51.930Z,99183.78
2023-04-01T07:28:39.212Z,99154.22
2023-04-01T07:31:42.592Z,99148.53
2023-04-01T07:34:21.355Z,99161.97
2023-04-01T07:36:57.706Z,99162.97
2023-04-01T07:39:32.521Z,99165.50
2023-04-01T07:42:48.422Z,99153.00
2023-04-01T07:45:32.599Z,99161.34
2023-04-01T07:48:08.758Z,99155.03
2023-04-01T07:51:09.184Z,99154.84
2023-04-01T07:54:15.252Z,99135.59
2023-04-01T07:57:16.815Z,99128.44
2023-04-01T08:00:01.662Z,99121.91
2023-04-01T08:02:53.791Z,99102.97
2023-04-01T08:05:36.552Z,99092.41
2023-04-01T08:08:32.808Z,99069.00
2023-04-01T08:11:29.272Z,99056.22
2023-04-01T08:15:12.795Z,99063.91
2023-04-01T08:18:04.486Z,99063.56
2023-04-01T08:20:47.766Z,99055.03
2023-04-01T08:23:24.587Z,99060.66
2023-04-01T08:25:56.972Z,99041.09
2023-04-01T08:28:43.924Z,99029.63
2023-04-01T08:31:33.626Z,99047.13
2023-04-01T08:34:08.230Z,99059.44
2023-04-01T08:36:43.115Z,99039.09
2023-04-01T08:39:32.203Z,99047.59
2023-04-01T08:42:36.311Z,99042.88
2023-04-01T08:45:36.467Z,99040.31
2023-04-01T08:48:46.736Z,99025.50
2023-04-01T08:51:19.316Z,99028.66
2023-04-01T08:54:16.485Z,99016.03
2023-04-01T08:57:12.620Z,99021.63
2023-04-01T09:00:36.580Z,99006.28
2023-04-01T09:03:29.310Z,98990.06
2023-04-01T09:06:23.008Z,98985.81
2023-04-01T09:09:27.018Z,98956.28
2023-04-01T09:12:12.401Z,98976.06
2023-04-01T09:14:47.751Z,98979.84
2023-04-01T09:17:48.364Z,98959.13
2023-04-01T09:20:49.951Z,98953.31
2023-04-01T09:24:01.660Z,98961.38
2023-04-01T09:26:52.256Z,98938.03
2023-04-01T09:29:36.684Z,98921.78
2023-04-01T09:32:36.901Z,98912.06
2023-04-01T09:35:26.817Z,98935.53
2023-04-01T09:38:03.192Z,98906.78
2023-04-01T09:40:50.133Z,98891.72
2023-04-01T09:44:21.540Z,98899.69
2023-04-01T09:47:21.415Z,98892.47
2023-04-01T09:50:16.701Z,98889.97
2023-04-01T09:53:13.340Z,98915.06
2023-04-01T09:56:34.273Z,98904.78
2023-04-01T09:59:35.027Z,98900.56
2023-04-01T10:02:37.217Z,98902.47
2023-04-01T10:05:47.484Z,98885.69
2023-04-01T10:08:36.766Z,98889.66
2023-04-01T10:11:27.247Z,98870.41
2023-04-01T10:14:24.875Z,98868.84
2023-04-01T10:17:02.969Z,98838.44
2023-04-01T10:20:05.657Z,98843.91
2023-04-01T10:22:52.706Z,98876.09
2023-04-01T10:25:25.500Z,98897.44
2023-04-01T10:28:36.663Z,98891.72
2023-04-01T10:32:09.791Z,98895.44
2023-04-01T10:35:11.290Z,98903.75
2023-04-01T10:38:02.978Z,98868.41
2023-04-01T10:41:09.851Z,98852.75
2023-04-01T10:44:44.584Z,98853.75
2023-04-01T10:47:53.834Z,98846.34
2023-04-01T10:51:01.537Z,98832.00
2023-04-01T10:53:41.385Z,98816.38
2023-04-01T10:56:48.656Z,98799.00
2023-04-01T10:59:49.943Z,98800.06
2023-04-01T11:03:29.441Z,98816.69
2023-04-01T11:06:29.529Z,98796.59
2023-04-01T11:09:32.458Z,98817.97
2023-04-01T11:12:29.773Z,98795.06
2023-04-01T11:15:37.175Z,98810.81
2023-04-01T11:18:47.763Z,98802.16
2023-04-01T11:21:36.229Z,98776.22
2023-04-01T11:24:35.248Z,98798.34
2023-04-01T11:27:54.610Z,98785.47
2023-04-01T11:30:44.968Z,98783.06
2023-04-01T11:33:21.299Z,98798.03
2023-04-01T11:36:17.842Z,98793.25
2023-04-01T11:39:25.503Z,98782.91
2023-04-01T11:43:01.887Z,98770.13
2023-04-01T11:46:21.146Z,98767.59
2023-04-01T11:49:12.392Z,98790.50
2023-04-01T11:52:08.267Z,98777.50
2023-04-01T11:55:19.078Z,98804.34
2023-04-01T11:58:04.130Z,98819.94
2023-04-01T12:00:55.173Z,98790.34
2023-04-01T12:03:57.321Z,98809.00
2023-04-01T12:06:47.555Z,98801.38
2023-04-01T12:09:35.139Z,98788.84
2023-04-01T12:12:31.797Z,98803.63
2023-04-01T12:15:02.686Z,98782.75
2023-04-01T12:17:35.012Z,98793.31
2023-04-01T12:20:44.897Z,98775.09
2023-04-01T12:23:39.551Z,98779.50
2023-04-01T12:26:24.988Z,98794.78
2023-04-01T12:29:25.986Z,98795.16
2023-04-01T12:32:04.865Z,98813.09
2023-04-01T12:34:55.008Z,98817.03
2023-04-01T12:37:47.362Z,98808.19
2023-04-01T12:40:52.846Z,98813.31
2023-04-01T12:43:24.387Z,98816.28
2023-04-01T12:45:57.248Z,98820.16
2023-04-01T12:48:43.061Z,98828.94
2023-04-01T12:51:32.213Z,98828.00
2023-04-01T12:54:41.823Z,98816.72
2023-04-01T12:58:09.627Z,98818.56
2023-04-01T13:01:12.652Z,98816.53
2023-04-01T13:03:55.294Z,98806.44
2023-04-01T13:06:44.923Z,98812.50
2023-04-01T13:09:36.496Z,98814.16
2023-04-01T13:12:30.833Z,98833.13
2023-04-01T13:15:12.490Z,98835.91
2023-04-01T13:18:03.555Z,98846.66
2023-04-01T13:21:03.140Z,98845.97
2023-04-01T13:23:44.680Z,98879.16
2023-04-01T13:26:44.178Z,98909.69
2023-04-01T13:29:28.082Z,98925.41
2023-04-01T13:32:33.369Z,98918.69
2023-04-01T13:35:43.722Z,98911.72
2023-04-01T13:38:31.312Z,98935.94
2023-04-01T13:41:24.624Z,98932.09
2023-04-01T13:44:21.184Z,98905.88
2023-04-01T13:47:05.697Z,98899.47
2023-04-01T13:50:11.177Z,98900.38
2023-04-01T13:53:11.027Z,98889.66
2023-04-01T13:55:48.602Z,98897.53
2023-04-01T13:58:39.088Z,98873.41
2023-04-01T14:01:21.366Z,98858.34
2023-04-01T14:04:07.703Z,98858.06
2023-04-01T14:07:01.077Z,98829.28
2023-04-01T14:09:40.447Z,98828.31
2023-04-01T14:12:31.493Z,98834.50
2023-04-01T14:15:25.103Z,98832.44
2023-04-01T14:18:13.412Z,98803.00
2023-04-01T14:21:21.811Z,98789.25
2023-04-01T14:23:57.325Z,98783.78
2023-04-01T14:27:07.225Z,98783.13
2023-04-01T14:29:41.598Z,98800.69
2023-04-01T14:32:40.387Z,98810.69
2023-04-01T14:35:29.354Z,98814.75
2023-04-01T14:38:49.091Z,98807.16
2023-04-01T14:41:47.676Z,98805.13
2023-04-01T14:44:29.445Z,98802.56
2023-04-01T14:47:01.024Z,98792.28
2023-04-01T14:49:37.436Z,98810.88
2023-04-01T14:52:16.790Z,98816.63
2023-04-01T14:54:49.034Z,98828.56
2023-04-01T14:57:31.269Z,98846.13
2023-04-01T15:00:19.082Z,98857.34
2023-04-01T15:03:05.250Z,98871.19
2023-04-01T15:06:08.618Z,98875.50
2023-04-01T15:08:55.194Z,98852.00
2023-04-01T15:11:45.776Z,98853.72
2023-04-01T15:14:40.607Z,98851.34
2023-04-01T15:17:43.528Z,98824.53
2023-04-01T15:20:33.203Z,98820.06
2023-04-01T15:23:21.323Z,98840.31
2023-04-01T15:25:53.917Z,98863.91
2023-04-01T15:28:36.043Z,98842.41
2023-04-01T15:31:32.621Z,98816.44
2023-04-01T15:34:31.026Z,98814.22
2023-04-01T15:37:40.643Z,98783.59
2023-04-01T15:40:39.365Z,98745.06
2023-04-01T15:43:24.062Z,98746.09
2023-04-01T15:46:04.634Z,98729.28
2023-04-01T15:49:09.617Z,98698.03
2023-04-01T15:52:21.139Z,98715.94
2023-04-01T15:55:37.638Z,98689.50
2023-04-01T15:58:52.053Z,98694.88
2023-04-01T16:01:44.824Z,98671.34
2023-04-01T16:04:53.420Z,98656.50
2023-04-01T16:07:37.772Z,98642.69
2023-04-01T16:10:54.089Z,98634.22
2023-04-01T16:14:01.527Z,98638.09
2023-04-01T16:17:37.951Z,98623.66
2023-04-01T16:21:14.335Z,98616.69
2023-04-01T16:24:52.838Z,98609.00
2023-04-01T16:28:24.824Z,98607.25
2023-04-01T16:32:25.415Z,98589.72
2023-04-01T16:40:45.635Z,98558.19
2023-04-01T16:43:58.470Z,98564.25
2023-04-01T17:02:16.063Z,98533.69
2023-04-01T17:05:44.078Z,98519.13
2023-04-01T17:09:09.201Z,98509.66
2023-04-01T17:12:04.921Z,98506.41
2023-04-01T17:14:41.662Z,98496.22
2023-04-01T17:17:41.760Z,98488.28
2023-04-01T17:20:21.364Z,98475.91
2023-04-01T17:23:12.087Z,98465.78
2023-04-01T17:26:08.155Z,98462.75
2023-04-01T17:29:04.666Z,98457.38
2023-04-01T17:31:48.650Z,98456.59
2023-04-01T17:34:29.818Z,98453.97
2023-04-01T17:37:21.671Z,98450.75
2023-04-01T17:40:27.707Z,98428.81
2023-04-01T17:43:03.961Z,98427.19
2023-04-01T17:46:06.365Z,98412.47
2023-04-01T17:48:52.926Z,98407.22
2023-04-01T17:51:44.280Z,98396.44
2023-04-01T17:54:24.395Z,98384.00
2023-04-01T17:57:27.815Z,98360.25
2023-04-01T18:00:25.318Z,98336.00
2023-04-01T18:03:17.063Z,98326.53
2023-04-01T18:06:01.332Z,98315.88
2023-04-01T18:09:05.246Z,98313.38
2023-04-01T18:11:55.696Z,98298.75
2023-04-01T18:14:38.152Z,98293.47
2023-04-01T18:17:31.887Z,98284.91
2023-04-01T18:20:09.241Z,98269.03
2023-04-01T18:22:44.664Z,98239.56
2023-04-01T18:25:35.808Z,98244.84
2023-04-01T18:28:36.916Z,98232.09
2023-04-01T18:32:26.366Z,98212.16
2023-04-01T18:35:21.709Z,98183.41
2023-04-01T18:38:24.138Z,98172.75
2023-04-01T18:41:29.475Z,98163.78
2023-04-01T18:44:45.244Z,98147.19
2023-04-01T18:47:43.264Z,98136.56
2023-04-01T18:50:53.559Z,98140.88
2023-04-01T18:54:09.894Z,98125.09
2023-04-01T18:56:47.957Z,98126.50
2023-04-01T18:59:50.196Z,98113.34
2023-04-01T19:02:41.807Z,98083.28
2023-04-01T19:05:20.153Z,98086.03
2023-04-01T19:08:01.715Z,98084.09
2023-04-01T19:10:53.625Z,98059.22
2023-04-01T19:13:56.104Z,98058.47
2023-04-01T19:17:19.368Z,98034.06
2023-04-01T19:20:18.669Z,98022.81
2023-04-01T19:23:25.645Z,98026.16
2023-04-01T19:26:36.020Z,97993.94
2023-04-01T19:29:38.011Z,98006.06
2023-04-01T19:32:39.963Z,97975.47
2023-04-01T19:35:44.921Z,97968.91
2023-04-01T19:39:13.684Z,97954.78
2023-04-01T19:46:37.313Z,97921.09
2023-04-01T19:49:41.695Z,97917.75
2023-04-01T19:53:18.167Z,97903.06
2023-04-01T19:56:55.359Z,97901.03
2023-04-01T20:04:08.620Z,97882.47
2023-04-01T20:08:10.286Z,97877.59
2023-04-01T20:11:31.353Z,97880.50
2023-04-01T20:14:20.725Z,97869.19
2023-04-01T20:16:52.128Z,97848.91
2023-04-01T20:19:47.971Z,97833.75
2023-04-01T20:22:36.299Z,97839.25
2023-04-01T20:29:33.468Z,97836.16
2023-04-01T20:32:20.164Z,97834.06
2023-04-01T20:34:57.354Z,97829.50
2023-04-01T20:38:12.469Z,97823.22
2023-04-01T20:41:07.925Z,97822.84
2023-04-01T20:44:45.995Z,97808.81
2023-04-01T20:49:17.593Z,97813.09
2023-04-01T20:53:21.543Z,97808.78
2023-04-01T20:56:16.049Z,97812.00
2023-04-01T20:59:09.709Z,97797.88
2023-04-01T21:02:05.956Z,97792.72
2023-04-01T21:05:23.144Z,97781.47
2023-04-01T21:09:09.381Z,97773.28
2023-04-01T21:11:56.801Z,97764.91
2023-04-01T21:15:22.825Z,97752.03
2023-04-01T21:18:16.231Z,97756.84
2023-04-01T21:25:35.389Z,97781.97
2023-04-01T21:28:33.753Z,97780.38
2023-04-01T21:31:48.872Z,97772.25
2023-04-01T21:34:54.476Z,97759.16
2023-04-01T21:38:09.499Z,97766.94
2023-04-01T21:41:19.627Z,97754.63
2023-04-01T21:44:21.653Z,97742.63
2023-04-01T21:47:13.507Z,97749.69
2023-04-01T21:50:12.138Z,97757.69
2023-04-01T21:53:15.790Z,97750.09
2023-04-01T21:56:12.765Z,97753.09
2023-04-01T21:59:22.204Z,97781.44
2023-04-01T22:02:34.484Z,97782.28
2023-04-01T22:05:34.566Z,97765.28
2023-04-01T22:08:58.007Z,97795.38
2023-04-01T22:12:09.469Z,97855.16
2023-04-01T22:15:07.976Z,97890.88
2023-04-01T22:18:00.148Z,97932.69
2023-04-01T22:20:48.059Z,97972.09
2023-04-01T22:29:13.451Z,97984.34
2023-04-01T22:32:09.813Z,97993.81
2023-04-01T22:35:09.489Z,98013.03
2023-04-01T22:38:02.876Z,98028.91
2023-04-01T22:45:43.608Z,98075.16
2023-04-01T22:48:29.760Z,98107.41
2023-04-01T22:51:05.131Z,98130.28
2023-04-01T22:53:43.627Z,98135.25
2023-04-01T22:56:24.547Z,98164.00
2023-04-01T22:59:10.988Z,98193.56
2023-04-01T23:02:09.029Z,98197.88
2023-04-01T23:05:26.539Z,98196.94
2023-04-01T23:08:24.965Z,98238.72
2023-04-01T23:11:04.937Z,98240.66
2023-04-01T23:13:41.843Z,98250.34
2023-04-01T23:16:13.548Z,98268.63
2023-04-01T23:18:53.843Z,98307.41
2023-04-01T23:21:43.151Z,98303.69
2023-04-01T23:24:15.632Z,98313.94
2023-04-01T23:27:15.635Z,98298.41
2023-04-01T23:29:45.219Z,98340.22
2023-04-01T23:32:21.856Z,98361.28
2023-04-01T23:34:57.839Z,98398.56
2023-04-01T23:37:32.213Z,98393.41
2023-04-01T23:40:03.376Z,98401.84
2023-04-01T23:42:43.669Z,98441.91
2023-04-01T23:45:22.040Z,98431.75
2023-04-01T23:47:53.789Z,98474.53
2023-04-01T23:50:27.557Z,98473.75
2023-04-01T23:53:27.486Z,98451.72
2023-04-01T23:55:57.917Z,98486.94
2023-04-01T23:58:45.764Z,98515.50
